createdAt,value
2023-01-19T00:04:05.044Z,52.53
2023-01-19T00:09:07.422Z,54.47
2023-01-19T00:14:09.770Z,54.20
2023-01-19T00:19:12.164Z,48.57
2023-01-19T00:24:15.031Z,38.60
2023-01-19T00:29:17.364Z,37.30
2023-01-19T00:34:19.703Z,41.13
2023-01-19T00:39:22.061Z,39.90
2023-01-19T00:44:24.411Z,41.33
2023-01-19T00:49:26.761Z,42.50
2023-01-19T00:54:29.142Z,44.90
2023-01-19T00:59:31.440Z,42.60
2023-01-19T01:04:33.884Z,41.27
2023-01-19T01:09:36.236Z,41.20
2023-01-19T01:14:38.570Z,48.47
2023-01-19T01:19:41.716Z,47.97
2023-01-19T01:24:44.361Z,55.80
2023-01-19T01:29:46.754Z,58.67
2023-01-19T01:34:49.240Z,45.70
2023-01-19T01:39:51.622Z,40.17
2023-01-19T01:44:59.687Z,38.53
2023-01-19T01:50:08.353Z,45.20
2023-01-19T01:55:11.873Z,45.87
2023-01-19T02:00:15.233Z,39.70
2023-01-19T02:05:26.634Z,50.53
2023-01-19T02:10:47.374Z,43.83
2023-01-19T02:15:56.553Z,38.23
2023-01-19T02:21:21.191Z,39.17
2023-01-19T02:26:30.258Z,34.60
2023-01-19T02:31:34.158Z,34.60
2023-01-19T02:36:45.425Z,29.63
2023-01-19T02:41:53.453Z,29.93
2023-01-19T02:46:56.304Z,28.43
2023-01-19T02:51:59.148Z,28.67
2023-01-19T02:57:24.429Z,27.07
2023-01-19T03:02:52.901Z,28.00
2023-01-19T03:08:22.636Z,26.63
2023-01-19T03:13:41.426Z,26.10
2023-01-19T03:18:48.261Z,24.30
2023-01-19T03:23:52.419Z,25.83
2023-01-19T03:28:58.699Z,26.03
2023-01-19T03:34:06.692Z,25.77
2023-01-19T03:39:11.967Z,23.97
2023-01-19T03:44:14.457Z,25.23
2023-01-19T03:49:16.955Z,24.10
2023-01-19T03:54:19.319Z,25.13
2023-01-19T03:59:22.005Z,23.57
2023-01-19T04:04:25.654Z,27.57
2023-01-19T04:09:29.095Z,24.33
2023-01-19T04:14:31.390Z,25.37
2023-01-19T04:19:33.791Z,34.87
2023-01-19T04:24:36.180Z,24.13
2023-01-19T04:29:38.838Z,23.10
2023-01-19T04:34:41.163Z,23.50
2023-01-19T04:39:43.678Z,23.87
2023-01-19T04:44:46.027Z,23.57
2023-01-19T04:49:48.365Z,22.23
2023-01-19T04:54:50.714Z,22.17
2023-01-19T04:59:53.040Z,20.97
2023-01-19T05:04:55.603Z,21.13
2023-01-19T05:09:58.015Z,21.50
2023-01-19T05:15:01.613Z,21.50
2023-01-19T05:20:06.045Z,22.13
2023-01-19T05:25:08.957Z,25.77
2023-01-19T05:30:12.835Z,48.20
2023-01-19T05:35:18.209Z,37.03
2023-01-19T05:40:21.637Z,46.93
2023-01-19T05:45:23.956Z,36.77
2023-01-19T05:50:26.308Z,33.90
2023-01-19T05:55:29.594Z,24.40
2023-01-19T06:00:32.107Z,29.63
2023-01-19T06:05:35.570Z,33.77
2023-01-19T06:10:37.939Z,21.70
2023-01-19T06:15:40.417Z,34.23
2023-01-19T06:20:42.871Z,29.10
2023-01-19T06:25:45.201Z,28.63
2023-01-19T06:30:52.363Z,28.53
2023-01-19T06:35:55.292Z,24.33
2023-01-19T06:40:58.972Z,25.37
2023-01-19T06:46:02.378Z,22.83
2023-01-19T06:51:06.027Z,23.30
2023-01-19T06:56:09.700Z,25.17
2023-01-19T07:01:12.588Z,23.33
2023-01-19T07:06:15.091Z,27.23
2023-01-19T07:11:25.799Z,21.97
2023-01-19T07:16:35.132Z,18.57
2023-01-19T07:21:37.741Z,21.97
2023-01-19T07:26:40.076Z,19.47
2023-01-19T07:31:42.982Z,23.23
2023-01-19T07:36:45.547Z,27.30
2023-01-19T07:41:50.943Z,21.93
2023-01-19T07:46:53.318Z,23.10
2023-01-19T07:51:56.490Z,21.93
2023-01-19T07:57:00.708Z,21.30
2023-01-19T08:02:03.236Z,45.87
2023-01-19T08:07:05.765Z,37.27
2023-01-19T08:12:08.164Z,42.20
2023-01-19T08:17:13.732Z,76.70
2023-01-19T08:22:23.720Z,39.33
2023-01-19T08:27:26.087Z,26.40
2023-01-19T08:32:29.082Z,40.33
2023-01-19T08:37:34.027Z,42.30
2023-01-19T08:42:36.494Z,20.67
2023-01-19T08:47:38.981Z,24.77
2023-01-19T08:52:41.399Z,135.93
2023-01-19T08:57:43.765Z,61.83
2023-01-19T09:02:46.699Z,54.40
2023-01-19T09:07:49.999Z,23.77
2023-01-19T09:12:52.584Z,22.57
2023-01-19T09:17:54.956Z,441.07
2023-01-19T09:23:00.859Z,51.27
2023-01-19T09:28:03.808Z,28.93
2023-01-19T09:33:09.062Z,27.60
2023-01-19T09:38:12.155Z,27.20
2023-01-19T09:43:22.760Z,30.43
2023-01-19T09:48:35.015Z,93.63
2023-01-19T09:54:00.113Z,72.10
2023-01-19T09:59:20.523Z,54.63
2023-01-19T10:04:28.760Z,33.07
2023-01-19T10:09:40.330Z,28.67
2023-01-19T10:14:52.117Z,27.73
2023-01-19T10:19:57.267Z,24.90
2023-01-19T10:25:06.084Z,27.63
2023-01-19T10:30:15.319Z,27.57
2023-01-19T10:35:25.533Z,93.67
2023-01-19T10:40:36.393Z,38.13
2023-01-19T10:45:38.788Z,108.93
2023-01-19T10:50:42.109Z,38.20
2023-01-19T10:55:44.527Z,51.00
2023-01-19T11:00:46.910Z,28.57
2023-01-19T11:05:49.370Z,26.60
2023-01-19T11:10:59.727Z,32.80
2023-01-19T11:16:07.138Z,46.30
2023-01-19T11:21:12.715Z,32.53
2023-01-19T11:26:39.220Z,28.80
2023-01-19T11:31:41.708Z,27.57
2023-01-19T11:36:59.760Z,24.40
2023-01-19T11:42:03.880Z,27.20
2023-01-19T11:47:23.366Z,26.83
2023-01-19T11:52:40.089Z,27.17
2023-01-19T11:57:47.754Z,30.40
2023-01-19T12:02:55.395Z,262.93
2023-01-19T12:08:06.465Z,32.67
2023-01-19T12:13:20.596Z,34.37
2023-01-19T12:18:27.134Z,32.53
2023-01-19T12:23:45.239Z,26.47
2023-01-19T12:28:52.906Z,34.00
2023-01-19T12:33:55.432Z,23.90
2023-01-19T12:39:04.665Z,23.90
2023-01-19T12:44:10.711Z,24.57
2023-01-19T12:49:28.227Z,22.63
2023-01-19T12:54:32.688Z,23.83
2023-01-19T12:59:37.550Z,28.03
2023-01-19T13:04:39.913Z,19.33
2023-01-19T13:09:43.304Z,22.70
2023-01-19T13:14:45.880Z,23.53
2023-01-19T13:19:53.904Z,20.93
2023-01-19T13:25:11.412Z,32.93
2023-01-19T13:30:27.505Z,117.90
2023-01-19T13:35:29.931Z,34.00
2023-01-19T13:40:41.150Z,189.20
2023-01-19T13:45:50.684Z,41.57
2023-01-19T13:51:20.512Z,24.27
2023-01-19T13:56:25.317Z,26.20
2023-01-19T14:01:30.278Z,27.77
2023-01-19T14:06:44.657Z,28.07
2023-01-19T14:12:25.746Z,26.47
2023-01-19T14:17:30.504Z,49.03
2023-01-19T14:22:46.965Z,86.57
2023-01-19T14:27:49.711Z,50.83
2023-01-19T14:32:53.025Z,57.00
2023-01-19T14:37:55.540Z,43.77
2023-01-19T14:43:00.675Z,49.37
2023-01-19T14:48:06.044Z,50.10
2023-01-19T14:53:21.257Z,76.87
2023-01-19T14:58:26.379Z,165.87
2023-01-19T15:03:44.322Z,208.50
2023-01-19T15:08:48.931Z,168.27
2023-01-19T15:13:51.874Z,116.60
2023-01-19T15:18:54.228Z,112.73
2023-01-19T15:23:58.464Z,112.07
2023-01-19T15:29:00.978Z,119.27
2023-01-19T15:34:03.272Z,129.00
2023-01-19T15:39:05.648Z,182.37
2023-01-19T15:44:11.227Z,179.70
2023-01-19T15:49:13.597Z,177.50
2023-01-19T15:54:16.838Z,217.97
2023-01-19T15:59:19.246Z,242.70
2023-01-19T16:04:21.634Z,265.20
2023-01-19T16:09:24.060Z,236.27
2023-01-19T16:14:26.731Z,205.50
2023-01-19T16:19:29.249Z,221.73
2023-01-19T16:24:32.138Z,179.83
2023-01-19T16:29:34.799Z,174.43
2023-01-19T16:34:37.235Z,127.07
2023-01-19T16:39:39.631Z,132.67
2023-01-19T16:44:42.438Z,127.17
2023-01-19T16:49:44.783Z,134.40
2023-01-19T16:54:47.187Z,135.30
2023-01-19T16:59:50.690Z,127.63
2023-01-19T17:04:53.051Z,128.13
2023-01-19T17:09:56.189Z,131.93
2023-01-19T17:14:58.527Z,131.13
2023-01-19T17:20:00.973Z,155.10
2023-01-19T17:25:03.549Z,159.67
2023-01-19T17:30:06.279Z,153.63
2023-01-19T17:35:09.736Z,176.27
2023-01-19T17:40:12.384Z,164.53
2023-01-19T17:45:15.536Z,158.93
2023-01-19T17:50:18.149Z,154.00
2023-01-19T17:55:20.585Z,153.17
2023-01-19T18:00:23.273Z,173.50
2023-01-19T18:05:25.620Z,163.13
2023-01-19T18:10:27.992Z,187.40
2023-01-19T18:15:30.452Z,215.10
2023-01-19T18:20:32.847Z,202.93
2023-01-19T18:25:35.162Z,193.43
2023-01-19T18:30:37.953Z,160.87
2023-01-19T18:35:40.444Z,164.60
2023-01-19T18:40:43.041Z,217.03
2023-01-19T18:45:48.644Z,168.73
2023-01-19T18:50:51.447Z,110.13
2023-01-19T18:55:56.577Z,87.60
2023-01-19T19:01:00.728Z,89.80
2023-01-19T19:06:03.687Z,81.10
2023-01-19T19:11:09.935Z,89.97
2023-01-19T19:16:13.724Z,94.50
2023-01-19T19:21:17.979Z,181.37
2023-01-19T19:26:20.611Z,127.20
2023-01-19T19:31:26.164Z,140.17
2023-01-19T19:36:28.879Z,154.80
2023-01-19T19:41:32.423Z,192.07
2023-01-19T19:46:35.321Z,157.10
2023-01-19T19:51:37.743Z,126.30
2023-01-19T19:56:40.309Z,110.47
2023-01-19T20:01:43.883Z,136.97
2023-01-19T20:06:47.804Z,146.77
2023-01-19T20:11:50.349Z,119.70
2023-01-19T20:16:54.394Z,124.53
2023-01-19T20:21:56.848Z,110.33
2023-01-19T20:26:59.166Z,105.47
2023-01-19T20:32:01.541Z,104.70
2023-01-19T20:37:04.752Z,102.20
2023-01-19T20:42:11.326Z,105.73
2023-01-19T20:47:14.077Z,132.33
2023-01-19T20:52:16.693Z,123.17
2023-01-19T20:57:19.035Z,149.07
2023-01-19T21:02:21.480Z,160.53
2023-01-19T21:07:23.838Z,117.17
2023-01-19T21:12:26.167Z,92.90
2023-01-19T21:17:28.709Z,90.73
2023-01-19T21:22:31.061Z,72.27
2023-01-19T21:27:33.531Z,74.00
2023-01-19T21:32:35.855Z,93.23
2023-01-19T21:37:38.186Z,116.33
2023-01-19T21:42:40.847Z,112.50
2023-01-19T21:47:43.467Z,129.30
2023-01-19T21:52:45.901Z,142.80
2023-01-19T21:57:48.234Z,182.10
2023-01-19T22:03:03.094Z,157.33
2023-01-19T22:08:06.545Z,118.80
2023-01-19T22:13:09.511Z,121.10
2023-01-19T22:18:11.944Z,125.17
2023-01-19T22:23:14.427Z,131.67
2023-01-19T22:28:16.758Z,124.93
2023-01-19T22:33:19.082Z,136.77
2023-01-19T22:38:21.446Z,140.80
2023-01-19T22:43:23.802Z,141.07
2023-01-19T22:48:26.438Z,148.03
2023-01-19T22:53:34.993Z,126.30
2023-01-19T22:58:37.716Z,173.70
2023-01-19T23:03:40.891Z,171.93
2023-01-19T23:09:38.980Z,152.60
2023-01-19T23:14:41.404Z,148.63
2023-01-19T23:19:43.765Z,148.03
2023-01-19T23:24:47.246Z,144.07
2023-01-19T23:29:49.560Z,158.40
2023-01-19T23:34:52.044Z,147.17
2023-01-19T23:39:54.360Z,125.20
2023-01-19T23:44:56.716Z,126.33
2023-01-19T23:49:59.378Z,123.90
2023-01-19T23:55:01.787Z,108.13
